createdAt,value
2018-12-13T00:00:45.927Z,962.91
2018-12-13T00:01:46.032Z,962.92
2018-12-13T00:02:45.794Z,962.89
2018-12-13T00:03:45.738Z,962.89
2018-12-13T00:04:45.690Z,962.88
2018-12-13T00:05:45.632Z,962.90
2018-12-13T00:06:45.603Z,962.83
2018-12-13T00:07:45.522Z,962.81
2018-12-13T00:08:45.634Z,962.82
2018-12-13T00:09:45.413Z,962.82
2018-12-13T00:10:45.358Z,962.78
2018-12-13T00:11:45.304Z,962.80
2018-12-13T00:12:45.252Z,962.78
2018-12-13T00:13:45.220Z,962.77
2018-12-13T00:14:45.140Z,962.78
2018-12-13T00:15:45.123Z,962.77
2018-12-13T00:16:45.031Z,962.74
2018-12-13T00:17:45.142Z,962.72
2018-12-13T00:18:44.924Z,962.74
2018-12-13T00:19:44.868Z,962.74
2018-12-13T00:20:44.815Z,962.72
2018-12-13T00:21:44.762Z,962.71
2018-12-13T00:22:44.708Z,962.71
2018-12-13T00:23:44.651Z,962.73
2018-12-13T00:24:44.737Z,962.69
2018-12-13T00:25:44.544Z,962.70
2018-12-13T00:26:44.490Z,962.65
2018-12-13T00:27:44.430Z,962.62
2018-12-13T00:28:44.382Z,962.62
2018-12-13T00:29:44.324Z,962.59
2018-12-13T00:30:44.270Z,962.58
2018-12-13T00:31:44.442Z,962.57
2018-12-13T00:32:44.163Z,962.58
2018-12-13T00:33:44.111Z,962.61
2018-12-13T00:34:44.053Z,962.56
2018-12-13T00:35:43.999Z,962.54
2018-12-13T00:36:43.970Z,962.54
2018-12-13T00:37:43.893Z,962.58
2018-12-13T00:38:44.055Z,962.56
2018-12-13T00:39:43.788Z,962.55
2018-12-13T00:40:43.728Z,962.57
2018-12-13T00:41:43.672Z,962.59
2018-12-13T00:42:43.619Z,962.57
2018-12-13T00:43:43.589Z,962.55
2018-12-13T00:44:43.511Z,962.58
2018-12-13T00:45:43.492Z,962.52
2018-12-13T00:46:43.404Z,962.55
2018-12-13T00:47:43.561Z,962.51
2018-12-13T00:48:43.294Z,962.53
2018-12-13T00:49:43.239Z,962.54
2018-12-13T00:50:43.185Z,962.50
2018-12-13T00:51:43.130Z,962.53
2018-12-13T00:52:43.100Z,962.50
2018-12-13T00:53:43.021Z,962.51
2018-12-13T00:54:43.162Z,962.52
2018-12-13T00:55:42.914Z,962.50
2018-12-13T00:56:42.859Z,962.50
2018-12-13T00:57:42.804Z,962.48
2018-12-13T00:58:42.750Z,962.51
2018-12-13T00:59:42.697Z,962.47
2018-12-13T01:00:42.643Z,962.45
2018-12-13T01:01:42.753Z,962.47
2018-12-13T01:02:42.536Z,962.45
2018-12-13T01:03:42.480Z,962.50
2018-12-13T01:04:42.426Z,962.46
2018-12-13T01:05:42.377Z,962.47
2018-12-13T01:06:46.015Z,962.45
2018-12-13T01:07:42.262Z,962.47
2018-12-13T01:08:42.373Z,962.43
2018-12-13T01:09:42.157Z,962.44
2018-12-13T01:10:42.100Z,962.42
2018-12-13T01:11:42.046Z,962.43
2018-12-13T01:12:41.997Z,962.39
2018-12-13T01:13:41.963Z,962.36
2018-12-13T01:14:41.884Z,962.40
2018-12-13T01:15:41.871Z,962.37
2018-12-13T01:16:41.774Z,962.39
2018-12-13T01:17:41.871Z,962.36
2018-12-13T01:18:41.667Z,962.37
2018-12-13T01:19:41.611Z,962.33
2018-12-13T01:20:41.748Z,962.35
2018-12-13T01:21:41.504Z,962.35
2018-12-13T01:22:41.479Z,962.33
2018-12-13T01:23:41.396Z,962.34
2018-12-13T01:24:41.570Z,962.37
2018-12-13T01:25:41.285Z,962.34
2018-12-13T01:26:41.232Z,962.33
2018-12-13T01:27:41.178Z,962.32
2018-12-13T01:28:41.123Z,962.29
2018-12-13T01:29:41.070Z,962.29
2018-12-13T01:30:41.018Z,962.34
2018-12-13T01:31:40.986Z,962.39
2018-12-13T01:32:40.907Z,962.34
2018-12-13T01:33:41.069Z,962.36
2018-12-13T01:34:40.799Z,962.31
2018-12-13T01:35:40.742Z,962.28
2018-12-13T01:36:40.690Z,962.22
2018-12-13T01:37:40.635Z,962.23
2018-12-13T01:38:40.581Z,962.20
2018-12-13T01:39:40.527Z,962.21
2018-12-13T01:40:40.500Z,962.19
2018-12-13T01:41:40.421Z,962.21
2018-12-13T01:42:40.582Z,962.26
2018-12-13T01:43:40.312Z,962.20
2018-12-13T01:44:40.255Z,962.22
2018-12-13T01:45:40.202Z,962.25
2018-12-13T01:46:40.146Z,962.24
2018-12-13T01:47:40.093Z,962.21
2018-12-13T01:48:40.041Z,962.19
2018-12-13T01:49:40.010Z,962.20
2018-12-13T01:50:39.929Z,962.19
2018-12-13T01:51:40.091Z,962.14
2018-12-13T01:52:39.820Z,962.17
2018-12-13T01:53:39.766Z,962.15
2018-12-13T01:54:39.713Z,962.16
2018-12-13T01:55:39.658Z,962.11
2018-12-13T01:56:39.605Z,962.15
2018-12-13T01:57:39.550Z,962.16
2018-12-13T01:58:39.522Z,962.05
2018-12-13T01:59:39.440Z,962.11
2018-12-13T02:00:39.583Z,962.09
2018-12-13T02:01:39.337Z,962.12
2018-12-13T02:02:39.292Z,962.08
2018-12-13T02:03:39.223Z,962.05
2018-12-13T02:04:39.170Z,962.01
2018-12-13T02:05:39.117Z,962.02
2018-12-13T02:06:39.066Z,961.94
2018-12-13T02:07:39.007Z,961.97
2018-12-13T02:08:38.953Z,961.95
2018-12-13T02:09:38.921Z,961.94
2018-12-13T02:10:38.845Z,961.87
2018-12-13T02:11:38.992Z,961.95
2018-12-13T02:12:38.734Z,961.93
2018-12-13T02:13:38.680Z,961.86
2018-12-13T02:14:38.626Z,961.87
2018-12-13T02:15:38.569Z,961.85
2018-12-13T02:16:38.518Z,961.83
2018-12-13T02:17:38.474Z,961.83
2018-12-13T02:18:38.426Z,961.83
2018-12-13T02:19:38.355Z,961.85
2018-12-13T02:20:38.499Z,961.80
2018-12-13T02:21:38.249Z,961.84
2018-12-13T02:22:38.192Z,961.85
2018-12-13T02:23:38.135Z,961.80
2018-12-13T02:24:38.081Z,961.77
2018-12-13T02:25:38.064Z,961.79
2018-12-13T02:26:37.973Z,961.79
2018-12-13T02:27:37.946Z,961.81
2018-12-13T02:28:37.863Z,961.81
2018-12-13T02:29:37.998Z,961.78
2018-12-13T02:30:37.760Z,961.75
2018-12-13T02:31:37.702Z,961.80
2018-12-13T02:32:37.646Z,961.73
2018-12-13T02:33:37.593Z,961.78
2018-12-13T02:34:37.539Z,961.70
2018-12-13T02:35:37.490Z,961.67
2018-12-13T02:36:37.453Z,961.66
2018-12-13T02:37:37.383Z,961.68
2018-12-13T02:38:37.501Z,961.71
2018-12-13T02:39:37.264Z,961.66
2018-12-13T02:40:37.214Z,961.64
2018-12-13T02:41:37.158Z,961.63
2018-12-13T02:42:37.103Z,961.63
2018-12-13T02:43:37.049Z,961.63
2018-12-13T02:44:36.993Z,961.63
2018-12-13T02:45:36.966Z,961.63
2018-12-13T02:46:36.885Z,961.61
2018-12-13T02:47:37.009Z,961.54
2018-12-13T02:48:36.778Z,961.58
2018-12-13T02:49:36.731Z,961.55
2018-12-13T02:50:36.669Z,961.57
2018-12-13T02:51:36.617Z,961.54
2018-12-13T02:52:36.561Z,961.57
2018-12-13T02:53:36.506Z,961.58
2018-12-13T02:54:36.475Z,961.54
2018-12-13T02:55:36.398Z,961.55
2018-12-13T02:56:36.507Z,961.54
2018-12-13T02:57:36.307Z,961.59
2018-12-13T02:58:36.238Z,961.55
2018-12-13T02:59:36.181Z,961.54
2018-12-13T03:00:36.127Z,961.52
2018-12-13T03:01:36.156Z,961.51
2018-12-13T03:02:36.016Z,961.55
2018-12-13T03:03:35.962Z,961.53
2018-12-13T03:04:35.906Z,961.53
2018-12-13T03:05:35.879Z,961.56
2018-12-13T03:06:35.802Z,961.49
2018-12-13T03:07:35.922Z,961.49
2018-12-13T03:08:35.692Z,961.48
2018-12-13T03:09:35.714Z,961.47
2018-12-13T03:10:35.581Z,961.52
2018-12-13T03:11:35.528Z,961.46
2018-12-13T03:12:35.473Z,961.45
2018-12-13T03:13:35.419Z,961.45
2018-12-13T03:14:35.367Z,961.45
2018-12-13T03:15:35.315Z,961.46
2018-12-13T03:16:35.422Z,961.46
2018-12-13T03:17:35.203Z,961.44
2018-12-13T03:18:35.146Z,961.35
2018-12-13T03:19:35.093Z,961.45
2018-12-13T03:20:35.044Z,961.43
2018-12-13T03:21:34.989Z,961.42
2018-12-13T03:22:34.931Z,961.39
2018-12-13T03:23:34.892Z,961.40
2018-12-13T03:24:34.821Z,961.43
2018-12-13T03:25:34.846Z,961.42
2018-12-13T03:26:34.713Z,961.44
2018-12-13T03:27:34.659Z,961.41
2018-12-13T03:28:34.606Z,961.38
2018-12-13T03:29:34.551Z,961.42
2018-12-13T03:30:34.496Z,961.43
2018-12-13T03:31:34.442Z,961.39
2018-12-13T03:32:34.412Z,961.39
2018-12-13T03:33:34.332Z,961.35
2018-12-13T03:34:34.428Z,961.31
2018-12-13T03:35:34.222Z,961.30
2018-12-13T03:36:34.171Z,961.29
2018-12-13T03:37:34.117Z,961.28
2018-12-13T03:38:34.061Z,961.35
2018-12-13T03:39:34.005Z,961.25
2018-12-13T03:40:33.950Z,961.21
2018-12-13T03:41:33.899Z,961.23
2018-12-13T03:42:33.845Z,961.18
2018-12-13T03:43:33.935Z,961.16
2018-12-13T03:44:33.732Z,961.15
2018-12-13T03:45:33.679Z,961.21
2018-12-13T03:46:33.627Z,961.20
2018-12-13T03:47:33.569Z,961.24
2018-12-13T03:48:33.519Z,961.22
2018-12-13T03:49:33.460Z,961.19
2018-12-13T03:50:33.431Z,961.18
2018-12-13T03:51:33.352Z,961.22
2018-12-13T03:52:33.433Z,961.22
2018-12-13T03:53:33.241Z,961.18
2018-12-13T03:54:33.188Z,961.18
2018-12-13T03:55:33.133Z,961.16
2018-12-13T03:56:33.079Z,961.13
2018-12-13T03:57:33.022Z,961.18
2018-12-13T03:58:32.970Z,961.12
2018-12-13T03:59:32.914Z,961.11
2018-12-13T04:00:32.861Z,961.14
2018-12-13T04:01:33.042Z,961.10
2018-12-13T04:02:32.752Z,961.08
2018-12-13T04:03:32.698Z,961.07
2018-12-13T04:04:32.643Z,961.05
2018-12-13T04:05:32.588Z,961.02
2018-12-13T04:06:32.533Z,961.05
2018-12-13T04:07:32.476Z,961.09
2018-12-13T04:08:32.453Z,961.02
2018-12-13T04:09:32.379Z,961.04
2018-12-13T04:10:32.544Z,961.03
2018-12-13T04:11:32.370Z,961.02
2018-12-13T04:12:32.206Z,961.08
2018-12-13T04:13:32.158Z,961.04
2018-12-13T04:14:32.096Z,961.03
2018-12-13T04:15:32.041Z,961.00
2018-12-13T04:16:31.986Z,961.04
2018-12-13T04:17:31.962Z,960.93
2018-12-13T04:18:31.875Z,961.02
2018-12-13T04:19:32.055Z,960.98
2018-12-13T04:20:31.768Z,960.92
2018-12-13T04:21:31.715Z,960.92
2018-12-13T04:22:31.658Z,960.90
2018-12-13T04:23:31.604Z,960.88
2018-12-13T04:24:31.559Z,960.91
2018-12-13T04:25:31.495Z,960.92
2018-12-13T04:26:31.466Z,960.93
2018-12-13T04:27:31.387Z,960.92
2018-12-13T04:28:31.564Z,960.95
2018-12-13T04:29:31.277Z,960.95
2018-12-13T04:30:31.225Z,960.89
2018-12-13T04:31:31.165Z,960.86
2018-12-13T04:32:31.112Z,960.91
2018-12-13T04:33:31.060Z,960.83
2018-12-13T04:34:31.002Z,960.85
2018-12-13T04:35:30.972Z,960.87
2018-12-13T04:36:30.893Z,960.85
2018-12-13T04:37:35.292Z,960.83
2018-12-13T04:38:30.784Z,960.81
2018-12-13T04:39:30.729Z,960.78
2018-12-13T04:40:30.675Z,960.76
2018-12-13T04:41:30.620Z,960.75
2018-12-13T04:42:30.569Z,960.75
2018-12-13T04:43:30.512Z,960.76
2018-12-13T04:44:30.455Z,960.81
2018-12-13T04:45:30.402Z,960.72
2018-12-13T04:46:30.373Z,960.70
2018-12-13T04:47:30.291Z,960.73
2018-12-13T04:48:30.464Z,960.73
2018-12-13T04:49:30.184Z,960.76
2018-12-13T04:50:30.129Z,960.69
2018-12-13T04:51:30.073Z,960.71
2018-12-13T04:52:30.020Z,960.69
2018-12-13T04:53:29.965Z,960.63
2018-12-13T04:54:29.911Z,960.65
2018-12-13T04:55:29.880Z,960.67
2018-12-13T04:56:29.801Z,960.72
2018-12-13T04:57:29.961Z,960.65
2018-12-13T04:58:29.692Z,960.66
2018-12-13T04:59:29.642Z,960.62
2018-12-13T05:00:29.584Z,960.65
2018-12-13T05:01:29.527Z,960.61
2018-12-13T05:02:29.473Z,960.61
2018-12-13T05:03:29.418Z,960.72
2018-12-13T05:04:29.395Z,960.66
2018-12-13T05:05:29.308Z,960.66
2018-12-13T05:06:29.482Z,960.67
2018-12-13T05:07:29.200Z,960.65
2018-12-13T05:08:29.146Z,960.62
2018-12-13T05:09:29.088Z,960.59
2018-12-13T05:10:29.035Z,960.70
2018-12-13T05:11:28.979Z,960.57
2018-12-13T05:12:28.923Z,960.59
2018-12-13T05:13:28.902Z,960.61
2018-12-13T05:14:28.815Z,960.55
2018-12-13T05:15:28.800Z,960.60
2018-12-13T05:16:28.706Z,960.50
2018-12-13T05:17:28.973Z,960.57
2018-12-13T05:18:28.596Z,960.58
2018-12-13T05:19:28.543Z,960.59
2018-12-13T05:20:28.490Z,960.53
2018-12-13T05:21:28.433Z,960.54
2018-12-13T05:22:28.378Z,960.53
2018-12-13T05:23:28.322Z,960.55
2018-12-13T05:24:28.292Z,960.44
2018-12-13T05:25:28.214Z,960.45
2018-12-13T05:26:28.379Z,960.49
2018-12-13T05:27:28.114Z,960.41
2018-12-13T05:28:28.050Z,960.47
2018-12-13T05:29:27.995Z,960.44
2018-12-13T05:30:27.943Z,960.39
2018-12-13T05:31:27.886Z,960.42
2018-12-13T05:32:27.831Z,960.43
2018-12-13T05:33:27.807Z,960.41
2018-12-13T05:34:27.731Z,960.41
2018-12-13T05:35:27.888Z,960.42
2018-12-13T05:36:27.613Z,960.37
2018-12-13T05:37:27.560Z,960.36
2018-12-13T05:38:27.502Z,960.34
2018-12-13T05:39:27.448Z,960.33
2018-12-13T05:40:27.395Z,960.36
2018-12-13T05:41:27.336Z,960.36
2018-12-13T05:42:27.309Z,960.38
2018-12-13T05:43:27.229Z,960.32
2018-12-13T05:44:27.241Z,960.28
2018-12-13T05:45:27.120Z,960.30
2018-12-13T05:46:27.287Z,960.32
2018-12-13T05:47:27.009Z,960.32
2018-12-13T05:48:26.956Z,960.26
2018-12-13T05:49:26.900Z,960.26
2018-12-13T05:50:26.847Z,960.32
2018-12-13T05:51:26.790Z,960.30
2018-12-13T05:52:26.736Z,960.29
2018-12-13T05:53:26.708Z,960.28
2018-12-13T05:54:26.628Z,960.33
2018-12-13T05:55:26.803Z,960.30
2018-12-13T05:56:26.517Z,960.27
2018-12-13T05:57:26.461Z,960.26
2018-12-13T05:58:26.407Z,960.28
2018-12-13T05:59:26.352Z,960.26
2018-12-13T06:00:26.299Z,960.22
2018-12-13T06:01:26.242Z,960.24
2018-12-13T06:02:26.219Z,960.18
2018-12-13T06:03:26.224Z,960.24
2018-12-13T06:04:26.300Z,960.22
2018-12-13T06:05:26.031Z,960.23
2018-12-13T06:06:25.970Z,960.23
2018-12-13T06:07:25.917Z,960.20
2018-12-13T06:08:25.861Z,960.19
2018-12-13T06:09:25.805Z,960.18
2018-12-13T06:10:25.750Z,960.19
2018-12-13T06:11:25.695Z,960.22
2018-12-13T06:12:25.641Z,960.18
2018-12-13T06:13:25.594Z,960.22
2018-12-13T06:14:25.533Z,960.20
2018-12-13T06:15:25.516Z,960.21
2018-12-13T06:16:25.422Z,960.17
2018-12-13T06:17:25.598Z,960.19
2018-12-13T06:18:25.314Z,960.21
2018-12-13T06:19:26.792Z,960.21
2018-12-13T06:20:25.205Z,960.22
2018-12-13T06:21:25.156Z,960.17
2018-12-13T06:22:25.097Z,960.30
2018-12-13T06:23:25.043Z,960.18
2018-12-13T06:24:24.993Z,960.27
2018-12-13T06:25:24.929Z,960.23
2018-12-13T06:26:24.878Z,960.23
2018-12-13T06:27:24.826Z,960.23
2018-12-13T06:28:24.767Z,960.26
2018-12-13T06:29:24.714Z,960.27
2018-12-13T06:30:24.660Z,960.25
2018-12-13T06:31:24.611Z,960.28
2018-12-13T06:32:24.549Z,960.26
2018-12-13T06:33:24.914Z,960.30
2018-12-13T06:34:24.439Z,960.27
2018-12-13T06:35:24.381Z,960.27
2018-12-13T06:36:24.365Z,960.24
2018-12-13T06:37:24.276Z,960.25
2018-12-13T06:38:24.424Z,960.25
2018-12-13T06:39:24.169Z,960.31
2018-12-13T06:40:24.116Z,960.33
2018-12-13T06:41:24.060Z,960.31
2018-12-13T06:42:24.036Z,960.37
2018-12-13T06:43:23.951Z,960.34
2018-12-13T06:44:23.906Z,960.33
2018-12-13T06:45:23.842Z,960.39
2018-12-13T06:46:24.497Z,960.34
2018-12-13T06:47:23.726Z,960.36
2018-12-13T06:48:23.670Z,960.37
2018-12-13T06:49:23.619Z,960.39
2018-12-13T06:50:23.566Z,960.38
2018-12-13T06:51:23.512Z,960.34
2018-12-13T06:52:23.701Z,960.36
2018-12-13T06:53:23.440Z,960.32
2018-12-13T06:54:23.368Z,960.35
2018-12-13T06:55:23.362Z,960.38
2018-12-13T06:56:23.244Z,960.39
2018-12-13T06:57:23.190Z,960.40
2018-12-13T06:58:23.122Z,960.42
2018-12-13T06:59:23.069Z,960.40
2018-12-13T07:00:23.014Z,960.35
2018-12-13T07:01:22.986Z,960.41
2018-12-13T07:02:22.926Z,960.43
2018-12-13T07:03:22.848Z,960.45
2018-12-13T07:04:22.795Z,960.44
2018-12-13T07:05:22.741Z,960.44
2018-12-13T07:06:22.688Z,960.41
2018-12-13T07:07:33.420Z,960.39
2018-12-13T07:08:22.579Z,960.41
2018-12-13T07:09:22.529Z,960.39
2018-12-13T07:10:22.466Z,960.44
2018-12-13T07:11:22.410Z,960.38
2018-12-13T07:12:22.366Z,960.36
2018-12-13T07:13:22.301Z,960.31
2018-12-13T07:14:22.289Z,960.37
2018-12-13T07:15:22.190Z,960.32
2018-12-13T07:16:22.140Z,960.36
2018-12-13T07:17:22.083Z,960.32
2018-12-13T07:18:22.127Z,960.29
2018-12-13T07:19:21.977Z,960.27
2018-12-13T07:20:21.930Z,960.32
2018-12-13T07:21:21.864Z,960.28
2018-12-13T07:23:53.864Z,960.30
2018-12-13T07:24:53.762Z,960.30
2018-12-13T07:25:53.714Z,960.33
2018-12-13T07:26:53.662Z,960.34
2018-12-13T07:27:53.603Z,960.35
2018-12-13T07:28:53.566Z,960.37
2018-12-13T07:29:53.494Z,960.34
2018-12-13T07:30:53.448Z,960.35
2018-12-13T07:31:53.381Z,960.29
2018-12-13T07:32:53.331Z,960.26
2018-12-13T07:33:53.274Z,960.32
2018-12-13T07:34:53.225Z,960.31
2018-12-13T07:35:53.165Z,960.29
2018-12-13T07:36:53.105Z,960.28
2018-12-13T07:37:53.061Z,960.27
2018-12-13T07:38:52.999Z,960.25
2018-12-13T07:39:52.948Z,960.22
2018-12-13T07:40:52.891Z,960.23
2018-12-13T07:41:52.836Z,960.31
2018-12-13T07:42:52.787Z,960.26
2018-12-13T07:43:52.731Z,960.25
2018-12-13T07:44:52.670Z,960.17
2018-12-13T07:45:52.615Z,960.19
2018-12-13T07:46:52.562Z,960.19
2018-12-13T07:47:52.507Z,960.24
2018-12-13T07:48:56.469Z,960.31
2018-12-13T07:49:52.396Z,960.16
2018-12-13T07:50:52.342Z,960.18
2018-12-13T07:51:52.287Z,960.20
2018-12-13T07:52:52.232Z,960.17
2018-12-13T07:55:33.733Z,960.20
2018-12-13T07:56:33.710Z,960.18
2018-12-13T07:57:33.600Z,960.23
2018-12-13T07:58:33.542Z,960.18
2018-12-13T07:59:33.500Z,960.19
2018-12-13T08:00:33.435Z,960.18
2018-12-13T08:01:33.397Z,960.25
2018-12-13T08:02:33.324Z,960.17
2018-12-13T08:03:33.271Z,960.18
2018-12-13T08:04:33.213Z,960.16
2018-12-13T08:05:33.366Z,960.22
2018-12-13T08:06:33.106Z,960.20
2018-12-13T08:07:33.055Z,960.20
2018-12-13T08:08:32.999Z,960.18
2018-12-13T08:09:32.947Z,960.11
2018-12-13T08:10:32.890Z,960.17
2018-12-13T08:11:32.840Z,960.15
2018-12-13T08:12:32.781Z,960.15
2018-12-13T08:13:32.726Z,960.17
2018-12-13T08:14:32.666Z,960.15
2018-12-13T08:15:32.611Z,960.17
2018-12-13T08:16:32.557Z,960.12
2018-12-13T08:17:32.506Z,960.17
2018-12-13T08:18:32.454Z,960.14
2018-12-13T08:19:32.387Z,960.12
2018-12-13T08:20:32.347Z,960.11
2018-12-13T08:21:32.285Z,960.13
2018-12-13T08:22:32.230Z,960.16
2018-12-13T08:23:32.180Z,960.15
2018-12-13T08:24:32.130Z,960.14
2018-12-13T08:25:32.119Z,960.14
2018-12-13T08:26:32.022Z,960.16
2018-12-13T08:27:31.971Z,960.16
2018-12-13T08:28:31.905Z,960.15
2018-12-13T08:29:31.851Z,960.12
2018-12-13T08:30:32.028Z,960.00
2018-12-13T08:33:08.283Z,960.12
2018-12-13T08:34:08.202Z,960.14
2018-12-13T08:35:08.243Z,960.12
2018-12-13T08:36:08.107Z,960.09
2018-12-13T08:37:08.038Z,960.05
2018-12-13T08:38:07.990Z,960.03
2018-12-13T08:39:07.928Z,960.07
2018-12-13T08:40:07.881Z,960.04
2018-12-13T08:41:07.818Z,960.07
2018-12-13T08:42:07.765Z,960.03
2018-12-13T08:43:07.714Z,960.04
2018-12-13T08:44:07.658Z,960.05
2018-12-13T08:45:07.620Z,960.06
2018-12-13T08:46:07.549Z,960.03
2018-12-13T08:47:07.683Z,960.03
2018-12-13T08:48:07.448Z,959.99
2018-12-13T08:49:07.390Z,960.01
2018-12-13T08:50:07.330Z,960.02
2018-12-13T08:51:07.279Z,960.00
2018-12-13T08:52:07.219Z,960.01
2018-12-13T08:53:07.172Z,959.92
2018-12-13T08:54:07.119Z,959.93
2018-12-13T08:55:07.057Z,959.91
2018-12-13T08:56:07.009Z,959.95
2018-12-13T08:57:06.964Z,959.90
2018-12-13T08:58:06.892Z,959.93
2018-12-13T08:59:06.839Z,959.92
2018-12-13T09:00:06.781Z,959.96
2018-12-13T09:01:06.733Z,959.90
2018-12-13T09:02:06.674Z,959.88
2018-12-13T09:03:06.620Z,959.88
2018-12-13T09:04:06.569Z,959.91
2018-12-13T09:05:06.570Z,959.85
2018-12-13T09:06:06.451Z,959.85
2018-12-13T09:07:06.400Z,959.91
2018-12-13T09:08:06.357Z,959.87
2018-12-13T09:09:06.304Z,959.88
2018-12-13T09:10:06.242Z,959.86
2018-12-13T09:11:06.181Z,959.87
2018-12-13T09:12:06.294Z,959.89
2018-12-13T09:13:06.082Z,959.85
2018-12-13T09:14:06.054Z,959.90
2018-12-13T09:15:05.970Z,959.90
2018-12-13T09:16:05.941Z,959.93
2018-12-13T09:17:05.894Z,959.85
2018-12-13T09:18:05.828Z,959.91
2018-12-13T09:19:05.751Z,959.93
2018-12-13T09:20:05.697Z,959.91
2018-12-13T09:21:06.148Z,960.03
2018-12-13T09:22:05.589Z,959.89
2018-12-13T09:23:05.525Z,959.92
2018-12-13T09:24:05.478Z,959.89
2018-12-13T09:25:05.422Z,959.86
2018-12-13T09:26:05.367Z,959.89
2018-12-13T09:27:05.310Z,959.88
2018-12-13T09:28:05.261Z,959.91
2018-12-13T09:29:05.194Z,959.89
2018-12-13T09:30:05.146Z,959.84
2018-12-13T09:31:05.091Z,959.93
2018-12-13T09:32:05.038Z,959.95
2018-12-13T09:33:04.985Z,959.92
2018-12-13T09:34:04.968Z,959.91
2018-12-13T09:35:04.904Z,959.93
2018-12-13T09:36:04.833Z,959.92
2018-12-13T09:37:04.767Z,959.91
2018-12-13T09:38:04.720Z,959.95
2018-12-13T09:39:04.664Z,959.88
2018-12-13T09:40:04.601Z,959.92
2018-12-13T09:41:04.550Z,959.86
2018-12-13T09:42:04.617Z,959.86
2018-12-13T09:43:04.451Z,959.89
2018-12-13T09:44:04.392Z,959.82
2018-12-13T09:45:04.496Z,959.86
2018-12-13T09:46:04.267Z,959.75
2018-12-13T09:47:04.222Z,959.84
2018-12-13T09:48:04.180Z,959.80
2018-12-13T09:49:04.119Z,959.82
2018-12-13T09:50:04.057Z,959.79
2018-12-13T09:51:04.004Z,959.80
2018-12-13T09:52:04.012Z,959.77
2018-12-13T09:53:03.903Z,959.79
2018-12-13T09:54:03.861Z,959.75
2018-12-13T09:55:05.779Z,959.70
2018-12-13T09:56:03.736Z,959.74
2018-12-13T09:57:03.672Z,959.67
2018-12-13T09:58:03.731Z,959.68
2018-12-13T09:59:03.570Z,959.64
2018-12-13T10:00:03.523Z,959.68
2018-12-13T10:01:03.453Z,959.66
2018-12-13T10:02:03.422Z,959.65
2018-12-13T10:03:03.361Z,959.60
2018-12-13T10:04:03.304Z,959.61
2018-12-13T10:05:03.246Z,959.59
2018-12-13T10:06:03.220Z,959.56
2018-12-13T10:07:03.156Z,959.52
2018-12-13T10:08:03.390Z,959.54
2018-12-13T10:09:03.071Z,959.54
2018-12-13T10:10:02.965Z,959.56
2018-12-13T10:11:02.995Z,959.56
2018-12-13T10:12:02.867Z,959.51
2018-12-13T10:13:02.842Z,959.54
2018-12-13T10:14:02.759Z,959.55
2018-12-13T10:15:02.741Z,959.52
2018-12-13T10:16:02.689Z,959.54
2018-12-13T10:18:34.751Z,959.60
2018-12-13T10:19:34.548Z,959.55
2018-12-13T10:20:34.610Z,959.51
2018-12-13T10:21:34.449Z,959.52
2018-12-13T10:22:34.386Z,959.54
2018-12-13T10:23:34.328Z,959.53
2018-12-13T10:24:34.302Z,959.50
2018-12-13T10:25:34.217Z,959.46
2018-12-13T10:26:34.166Z,959.46
2018-12-13T10:27:34.111Z,959.50
2018-12-13T10:28:34.093Z,959.47
2018-12-13T10:29:34.004Z,959.49
2018-12-13T10:30:33.949Z,959.49
2018-12-13T10:31:33.894Z,959.46
2018-12-13T10:32:33.851Z,959.40
2018-12-13T10:33:34.383Z,959.46
2018-12-13T10:34:33.739Z,959.45
2018-12-13T10:35:33.678Z,959.44
2018-12-13T10:36:33.625Z,959.50
2018-12-13T10:37:33.575Z,959.45
2018-12-13T10:38:33.518Z,959.43
2018-12-13T10:39:33.470Z,959.40
2018-12-13T10:40:33.408Z,959.42
2018-12-13T10:41:33.354Z,959.38
2018-12-13T10:42:33.363Z,959.38
2018-12-13T10:43:33.245Z,959.41
2018-12-13T10:44:33.198Z,959.39
2018-12-13T10:45:33.164Z,959.43
2018-12-13T10:46:33.084Z,959.29
2018-12-13T10:47:33.023Z,959.36
2018-12-13T10:48:32.999Z,959.30
2018-12-13T10:49:32.922Z,959.27
2018-12-13T10:50:32.869Z,959.22
2018-12-13T10:51:33.043Z,959.23
2018-12-13T10:52:32.759Z,959.25
2018-12-13T10:53:32.708Z,959.24
2018-12-13T10:54:32.660Z,959.30
2018-12-13T10:55:32.599Z,959.25
2018-12-13T10:56:32.552Z,959.27
2018-12-13T10:57:32.493Z,959.27
2018-12-13T10:58:32.442Z,959.23
2018-12-13T10:59:32.389Z,959.15
2018-12-13T11:00:32.330Z,959.20
2018-12-13T11:01:32.286Z,959.18
2018-12-13T11:02:32.222Z,959.20
2018-12-13T11:03:32.167Z,959.21
2018-12-13T11:04:32.114Z,959.24
2018-12-13T11:05:32.060Z,959.19
2018-12-13T11:06:32.005Z,959.22
2018-12-13T11:07:31.958Z,959.19
2018-12-13T11:08:31.897Z,959.23
2018-12-13T11:09:31.839Z,959.17
2018-12-13T11:10:31.793Z,959.15
2018-12-13T11:11:31.751Z,959.19
2018-12-13T11:12:31.857Z,959.18
2018-12-13T11:13:31.638Z,959.08
2018-12-13T11:14:31.576Z,959.09
2018-12-13T11:15:31.524Z,959.12
2018-12-13T11:16:31.469Z,959.06
2018-12-13T11:17:31.414Z,959.14
2018-12-13T11:18:31.360Z,959.11
2018-12-13T11:19:31.304Z,959.10
2018-12-13T11:20:31.250Z,959.02
2018-12-13T11:21:31.211Z,959.06
2018-12-13T11:22:31.149Z,959.05
2018-12-13T11:23:31.137Z,959.06
2018-12-13T11:24:31.046Z,959.10
2018-12-13T11:25:30.987Z,959.09
2018-12-13T11:26:30.932Z,959.04
2018-12-13T11:27:30.890Z,959.18
2018-12-13T11:28:30.825Z,959.04
2018-12-13T11:29:30.770Z,959.01
2018-12-13T11:30:30.717Z,959.04
2018-12-13T11:31:30.662Z,959.08
2018-12-13T11:32:30.609Z,959.04
2018-12-13T11:33:30.572Z,959.07
2018-12-13T11:34:30.500Z,959.02
2018-12-13T11:35:30.455Z,959.02
2018-12-13T11:36:30.418Z,959.03
2018-12-13T11:37:30.342Z,959.03
2018-12-13T11:38:30.287Z,959.02
2018-12-13T11:39:30.233Z,959.05
2018-12-13T11:40:30.194Z,959.04
2018-12-13T11:41:33.735Z,959.02
2018-12-13T11:42:30.105Z,959.02
2018-12-13T11:43:30.016Z,958.97
2018-12-13T11:44:29.962Z,959.01
2018-12-13T11:45:29.944Z,959.01
2018-12-13T11:46:29.861Z,958.99
2018-12-13T11:47:29.804Z,959.00
2018-12-13T11:48:29.789Z,959.03
2018-12-13T11:49:29.856Z,959.00
2018-12-13T11:50:29.645Z,959.03
2018-12-13T11:51:29.581Z,958.98
2018-12-13T11:52:29.544Z,959.01
2018-12-13T11:53:29.500Z,959.01
2018-12-13T11:54:29.430Z,959.01
2018-12-13T11:55:29.370Z,959.04
2018-12-13T11:56:29.322Z,959.02
2018-12-13T11:57:29.267Z,959.05
2018-12-13T11:58:29.259Z,959.02
2018-12-13T11:59:29.156Z,959.02
2018-12-13T12:00:29.109Z,958.96
2018-12-13T12:01:29.053Z,958.95
2018-12-13T12:02:28.998Z,959.03
2018-12-13T12:03:28.952Z,959.04
2018-12-13T12:04:28.893Z,958.98
2018-12-13T12:05:28.834Z,958.89
2018-12-13T12:06:28.789Z,958.93
2018-12-13T12:07:28.734Z,958.91
2018-12-13T12:08:28.695Z,958.92
2018-12-13T12:09:28.634Z,958.94
2018-12-13T12:10:28.595Z,958.95
2018-12-13T12:11:28.550Z,958.98
2018-12-13T12:12:28.482Z,958.98
2018-12-13T12:13:28.425Z,958.98
2018-12-13T12:14:28.374Z,958.99
2018-12-13T12:15:28.326Z,959.02
2018-12-13T12:16:28.267Z,958.98
2018-12-13T12:17:28.218Z,959.04
2018-12-13T12:18:28.172Z,958.98
2018-12-13T12:19:28.092Z,959.00
2018-12-13T12:20:28.049Z,958.98
2018-12-13T12:21:27.983Z,959.01
2018-12-13T12:22:27.940Z,958.94
2018-12-13T12:23:27.870Z,958.87
2018-12-13T12:24:27.823Z,958.94
2018-12-13T12:25:27.757Z,959.01
2018-12-13T12:26:27.705Z,958.90
2018-12-13T12:27:27.670Z,958.82
2018-12-13T12:28:27.608Z,958.85
2018-12-13T12:29:27.552Z,958.93
2018-12-13T12:30:27.491Z,958.93
2018-12-13T12:31:27.462Z,958.93
2018-12-13T12:32:27.395Z,958.93
2018-12-13T12:33:27.337Z,959.00
2018-12-13T12:34:27.335Z,958.96